createdAt,value
2016-08-29T00:00:17.922Z,25.60
2016-08-29T00:00:44.418Z,25.59
2016-08-29T00:01:06.154Z,25.68
2016-08-29T00:01:27.931Z,25.71
2016-08-29T00:01:50.719Z,25.55
2016-08-29T00:02:17.281Z,25.38
2016-08-29T00:02:48.546Z,25.52
2016-08-29T00:03:10.497Z,25.23
2016-08-29T00:03:32.348Z,25.35
2016-08-29T00:03:54.250Z,25.50
2016-08-29T00:04:16.081Z,25.50
2016-08-29T00:04:43.646Z,25.47
2016-08-29T00:05:05.462Z,25.24
2016-08-29T00:05:27.298Z,24.98
2016-08-29T00:05:53.872Z,24.99
2016-08-29T00:06:15.635Z,24.90
2016-08-29T00:06:37.451Z,24.92
2016-08-29T00:07:04.052Z,24.94
2016-08-29T00:07:25.821Z,24.77
2016-08-29T00:07:47.594Z,24.74
2016-08-29T00:08:14.100Z,24.61
2016-08-29T00:08:35.847Z,24.58
2016-08-29T00:09:02.366Z,24.60
2016-08-29T00:09:55.445Z,24.66
2016-08-29T00:10:17.180Z,24.88
2016-08-29T00:10:38.922Z,25.11
2016-08-29T00:11:01.747Z,25.24
2016-08-29T00:11:23.493Z,25.25
2016-08-29T00:11:45.309Z,25.34
2016-08-29T00:12:11.818Z,25.33
2016-08-29T00:12:33.565Z,25.43
2016-08-29T00:12:55.309Z,25.57
2016-08-29T00:13:17.050Z,25.69
2016-08-29T00:13:38.845Z,25.66
2016-08-29T00:14:05.390Z,25.74
2016-08-29T00:14:56.330Z,25.31
2016-08-29T00:15:18.094Z,25.31
2016-08-29T00:15:39.827Z,25.29
2016-08-29T00:16:06.331Z,24.94
2016-08-29T00:16:28.081Z,24.95
2016-08-29T00:16:49.815Z,24.79
2016-08-29T00:17:11.577Z,24.74
2016-08-29T00:17:34.318Z,24.82
2016-08-29T00:17:56.084Z,24.74
2016-08-29T00:18:44.448Z,24.63
2016-08-29T00:19:11.015Z,24.63
2016-08-29T00:19:33.751Z,24.73
2016-08-29T00:19:55.504Z,24.73
2016-08-29T00:20:17.246Z,24.73
2016-08-29T00:20:39.077Z,24.63
2016-08-29T00:21:05.709Z,24.84
2016-08-29T00:21:27.555Z,25.05
2016-08-29T00:21:49.312Z,25.21
2016-08-29T00:22:11.047Z,25.38
2016-08-29T00:22:32.781Z,25.47
2016-08-29T00:22:57.481Z,25.28
2016-08-29T00:23:19.216Z,25.09
2016-08-29T00:23:40.957Z,24.98
2016-08-29T00:24:02.710Z,24.74
2016-08-29T00:24:29.204Z,24.87
2016-08-29T00:24:50.949Z,24.71
2016-08-29T00:25:17.459Z,24.51
2016-08-29T00:25:39.223Z,24.51
2016-08-29T00:26:01.041Z,24.50
2016-08-29T00:26:22.781Z,24.60
2016-08-29T00:26:49.316Z,24.93
2016-08-29T00:27:11.200Z,24.96
2016-08-29T00:27:32.970Z,24.78
2016-08-29T00:27:54.785Z,24.62
2016-08-29T00:28:16.530Z,24.47
2016-08-29T00:28:38.346Z,24.54
2016-08-29T00:29:00.157Z,24.57
2016-08-29T00:29:21.887Z,24.63
2016-08-29T00:29:43.663Z,24.84
2016-08-29T00:30:05.413Z,24.93
2016-08-29T00:30:27.197Z,24.92
2016-08-29T00:30:48.934Z,24.89
2016-08-29T00:31:10.746Z,24.79
2016-08-29T00:31:32.569Z,24.64
2016-08-29T00:31:54.300Z,24.57
2016-08-29T00:32:16.057Z,24.59
2016-08-29T00:32:37.823Z,24.84
2016-08-29T00:32:59.714Z,25.01
2016-08-29T00:33:21.552Z,25.00
2016-08-29T00:33:49.120Z,25.19
2016-08-29T00:34:15.863Z,25.32
2016-08-29T00:34:38.878Z,25.21
2016-08-29T00:35:00.630Z,25.17
2016-08-29T00:35:25.061Z,25.24
2016-08-29T00:35:46.929Z,25.17
2016-08-29T00:36:08.907Z,25.30
2016-08-29T00:36:35.619Z,25.38
2016-08-29T00:36:57.539Z,25.43
2016-08-29T00:37:19.421Z,25.44
2016-08-29T00:37:41.151Z,25.46
2016-08-29T00:38:07.644Z,25.42
2016-08-29T00:38:34.169Z,25.03
2016-08-29T00:38:55.996Z,25.11
2016-08-29T00:39:17.809Z,25.22
2016-08-29T00:39:39.578Z,25.39
2016-08-29T00:40:01.363Z,25.43
2016-08-29T00:40:23.102Z,25.51
2016-08-29T00:40:44.835Z,25.52
2016-08-29T00:41:06.574Z,25.50
2016-08-29T00:41:28.325Z,25.61
2016-08-29T00:41:50.086Z,25.59
2016-08-29T00:42:11.824Z,25.29
2016-08-29T00:43:09.610Z,25.02
2016-08-29T00:43:31.348Z,25.15
2016-08-29T00:43:53.115Z,25.18
2016-08-29T00:44:14.983Z,25.24
2016-08-29T00:44:36.840Z,25.30
2016-08-29T00:44:58.832Z,25.33
2016-08-29T00:45:20.612Z,25.35
2016-08-29T00:45:44.377Z,25.30
2016-08-29T00:46:06.169Z,25.14
2016-08-29T00:46:29.093Z,25.20
2016-08-29T00:47:00.157Z,25.39
2016-08-29T00:47:26.792Z,25.51
2016-08-29T00:47:53.349Z,25.29
2016-08-29T00:48:15.210Z,25.09
2016-08-29T00:48:37.136Z,25.01
2016-08-29T00:48:58.982Z,25.08
2016-08-29T00:49:20.764Z,25.11
2016-08-29T00:49:42.561Z,25.10
2016-08-29T00:50:04.480Z,24.87
2016-08-29T00:50:26.393Z,24.96
2016-08-29T00:50:48.249Z,24.87
2016-08-29T00:51:41.288Z,24.76
2016-08-29T00:52:03.126Z,24.95
2016-08-29T00:52:25.086Z,25.03
2016-08-29T00:52:46.818Z,25.04
2016-08-29T00:53:08.591Z,25.05
2016-08-29T00:53:35.113Z,25.20
2016-08-29T00:53:56.858Z,25.29
2016-08-29T00:54:18.660Z,25.38
2016-08-29T00:54:40.451Z,25.37
2016-08-29T00:55:02.208Z,25.34
2016-08-29T00:55:24.950Z,25.35
2016-08-29T00:55:46.681Z,25.37
2016-08-29T00:56:08.447Z,25.53
2016-08-29T00:56:30.219Z,25.38
2016-08-29T00:56:51.984Z,25.14
2016-08-29T00:57:13.731Z,24.99
2016-08-29T00:57:41.249Z,24.98
2016-08-29T00:58:30.551Z,25.17
2016-08-29T00:58:52.353Z,25.10
2016-08-29T00:59:14.103Z,25.03
2016-08-29T00:59:40.636Z,24.73
2016-08-29T01:00:02.371Z,24.74
2016-08-29T01:00:24.175Z,24.80
2016-08-29T01:00:45.903Z,24.99
2016-08-29T01:01:07.632Z,24.96
2016-08-29T01:01:29.384Z,24.96
2016-08-29T01:01:51.155Z,25.04
2016-08-29T01:02:12.883Z,25.18
2016-08-29T01:02:39.384Z,25.33
2016-08-29T01:03:01.112Z,25.17
2016-08-29T01:03:22.851Z,25.14
2016-08-29T01:03:44.719Z,25.21
2016-08-29T01:04:06.572Z,25.21
2016-08-29T01:04:33.067Z,25.34
2016-08-29T01:04:54.811Z,25.31
2016-08-29T01:05:16.529Z,24.89
2016-08-29T01:05:38.265Z,24.67
2016-08-29T01:05:59.992Z,24.51
2016-08-29T01:06:21.726Z,24.35
2016-08-29T01:06:43.463Z,24.22
2016-08-29T01:07:05.206Z,24.35
2016-08-29T01:07:31.709Z,24.42
2016-08-29T01:07:53.459Z,24.55
2016-08-29T01:08:15.191Z,24.55
2016-08-29T01:08:36.918Z,24.55
2016-08-29T01:08:58.663Z,24.54
2016-08-29T01:09:20.396Z,24.66
2016-08-29T01:09:42.124Z,24.92
2016-08-29T01:10:03.850Z,25.06
2016-08-29T01:10:25.575Z,25.17
2016-08-29T01:10:47.313Z,25.11
2016-08-29T01:11:09.059Z,25.22
2016-08-29T01:11:30.917Z,25.28
2016-08-29T01:11:52.659Z,25.28
2016-08-29T01:12:14.477Z,25.25
2016-08-29T01:12:36.228Z,25.16
2016-08-29T01:12:59.024Z,24.97
2016-08-29T01:13:20.765Z,24.72
2016-08-29T01:13:42.686Z,24.69
2016-08-29T01:14:04.503Z,24.60
2016-08-29T01:14:26.257Z,24.38
2016-08-29T01:14:48.073Z,24.35
2016-08-29T01:15:09.830Z,24.43
2016-08-29T01:15:31.619Z,24.45
2016-08-29T01:15:53.430Z,24.47
2016-08-29T01:16:15.163Z,24.28
2016-08-29T01:16:41.659Z,24.13
2016-08-29T01:17:03.406Z,24.08
2016-08-29T01:17:25.236Z,24.32
2016-08-29T01:17:46.963Z,24.33
2016-08-29T01:18:08.683Z,24.22
2016-08-29T01:18:30.413Z,24.21
2016-08-29T01:18:52.170Z,24.21
2016-08-29T01:19:13.908Z,24.46
2016-08-29T01:19:40.408Z,24.62
2016-08-29T01:20:02.148Z,24.78
2016-08-29T01:20:50.362Z,24.70
2016-08-29T01:21:12.221Z,24.47
2016-08-29T01:21:33.973Z,24.42
2016-08-29T01:21:55.764Z,24.45
2016-08-29T01:22:17.489Z,24.34
2016-08-29T01:22:39.261Z,24.15
2016-08-29T01:23:01.004Z,24.33
2016-08-29T01:23:23.716Z,24.54
2016-08-29T01:23:45.459Z,24.75
2016-08-29T01:24:07.265Z,24.58
2016-08-29T01:24:29.152Z,24.41
2016-08-29T01:24:55.643Z,24.48
2016-08-29T01:25:17.373Z,24.76
2016-08-29T01:25:39.111Z,24.67
2016-08-29T01:26:01.027Z,24.40
2016-08-29T01:26:23.855Z,24.21
2016-08-29T01:26:45.781Z,24.27
2016-08-29T01:27:12.313Z,24.46
2016-08-29T01:27:34.046Z,24.51
2016-08-29T01:27:55.779Z,24.46
2016-08-29T01:28:17.515Z,24.43
2016-08-29T01:28:44.012Z,24.66
2016-08-29T01:29:05.744Z,24.80
2016-08-29T01:29:27.478Z,24.92
2016-08-29T01:29:49.202Z,24.99
2016-08-29T01:30:11.126Z,25.01
2016-08-29T01:30:32.900Z,24.98
2016-08-29T01:30:54.619Z,25.02
2016-08-29T01:31:16.409Z,25.02
2016-08-29T01:31:38.204Z,24.64
2016-08-29T01:32:00.169Z,24.50
2016-08-29T01:32:26.672Z,24.49
2016-08-29T01:32:48.436Z,24.54
2016-08-29T01:33:11.174Z,24.70
2016-08-29T01:33:32.911Z,24.80
2016-08-29T01:33:54.662Z,24.87
2016-08-29T01:34:16.408Z,24.93
2016-08-29T01:34:41.134Z,25.01
2016-08-29T01:35:35.178Z,24.52
2016-08-29T01:35:56.918Z,24.47
2016-08-29T01:36:21.505Z,24.63
2016-08-29T01:36:43.328Z,24.78
2016-08-29T01:37:05.222Z,24.75
2016-08-29T01:37:29.514Z,24.66
2016-08-29T01:37:51.317Z,24.74
2016-08-29T01:38:15.825Z,24.68
2016-08-29T01:38:37.619Z,24.61
2016-08-29T01:38:59.364Z,24.49
2016-08-29T01:39:21.166Z,24.60
2016-08-29T01:39:47.689Z,24.81
2016-08-29T01:40:09.416Z,24.91
2016-08-29T01:40:32.210Z,25.05
2016-08-29T01:40:53.980Z,25.04
2016-08-29T01:41:15.748Z,25.05
2016-08-29T01:41:37.485Z,24.93
2016-08-29T01:41:59.360Z,24.70
2016-08-29T01:42:21.189Z,24.53
2016-08-29T01:42:42.965Z,24.67
2016-08-29T01:43:04.758Z,24.75
2016-08-29T01:43:26.499Z,24.88
2016-08-29T01:43:48.265Z,24.86
2016-08-29T01:44:10.199Z,24.97
2016-08-29T01:44:31.966Z,25.03
2016-08-29T01:44:58.465Z,24.97
2016-08-29T01:45:20.236Z,24.94
2016-08-29T01:45:44.900Z,25.07
2016-08-29T01:46:06.653Z,25.08
2016-08-29T01:46:28.387Z,25.11
2016-08-29T01:46:51.287Z,25.15
2016-08-29T01:47:13.038Z,25.09
2016-08-29T01:47:39.522Z,24.70
2016-08-29T01:48:06.028Z,24.67
2016-08-29T01:48:54.307Z,24.59
2016-08-29T01:49:16.072Z,24.50
2016-08-29T01:49:37.820Z,24.55
2016-08-29T01:50:09.101Z,24.71
2016-08-29T01:50:30.827Z,24.88
2016-08-29T01:50:52.582Z,24.99
2016-08-29T01:51:14.319Z,25.07
2016-08-29T01:51:36.086Z,24.95
2016-08-29T01:51:57.847Z,24.84
2016-08-29T01:52:19.609Z,24.94
2016-08-29T01:52:41.399Z,24.98
2016-08-29T01:53:04.208Z,25.03
2016-08-29T01:53:28.743Z,24.89
2016-08-29T01:53:53.062Z,24.95
2016-08-29T01:54:14.798Z,24.93
2016-08-29T01:54:36.532Z,24.91
2016-08-29T01:55:06.615Z,24.79
2016-08-29T01:55:28.434Z,24.85
2016-08-29T01:55:54.831Z,24.89
2016-08-29T01:56:16.638Z,24.94
2016-08-29T01:56:40.912Z,24.99
2016-08-29T01:57:02.893Z,24.85
2016-08-29T01:57:24.810Z,24.88
2016-08-29T01:57:51.418Z,24.84
2016-08-29T01:58:20.840Z,24.72
2016-08-29T01:58:47.399Z,24.67
2016-08-29T01:59:09.329Z,24.84
2016-08-29T01:59:31.162Z,24.92
2016-08-29T01:59:53.053Z,24.97
2016-08-29T02:00:14.814Z,24.99
2016-08-29T02:00:41.387Z,25.09
2016-08-29T02:01:05.755Z,24.81
2016-08-29T02:01:54.046Z,24.86
2016-08-29T02:02:15.775Z,24.90
2016-08-29T02:02:45.159Z,24.86
2016-08-29T02:03:07.007Z,24.74
2016-08-29T02:03:33.524Z,24.88
2016-08-29T02:03:55.284Z,24.98
2016-08-29T02:04:17.080Z,24.90
2016-08-29T02:04:38.814Z,24.78
2016-08-29T02:05:03.140Z,24.72
2016-08-29T02:05:29.655Z,24.82
2016-08-29T02:05:56.150Z,24.62
2016-08-29T02:06:17.889Z,24.59
2016-08-29T02:06:39.647Z,24.60
2016-08-29T02:07:01.403Z,24.67
2016-08-29T02:07:23.217Z,24.80
2016-08-29T02:07:44.953Z,24.85
2016-08-29T02:08:06.702Z,24.88
2016-08-29T02:08:28.484Z,24.90
2016-08-29T02:08:53.074Z,24.93
2016-08-29T02:09:17.367Z,24.88
2016-08-29T02:09:39.108Z,24.83
2016-08-29T02:10:00.858Z,24.51
2016-08-29T02:10:51.982Z,24.32
2016-08-29T02:11:18.592Z,24.09
2016-08-29T02:11:40.423Z,24.11
2016-08-29T02:12:04.774Z,24.39
2016-08-29T02:12:26.708Z,24.35
2016-08-29T02:13:19.840Z,24.63
2016-08-29T02:14:12.958Z,24.55
2016-08-29T02:14:34.776Z,24.64
2016-08-29T02:14:56.536Z,24.69
2016-08-29T02:15:23.152Z,24.81
2016-08-29T02:15:44.908Z,24.89
2016-08-29T02:16:06.726Z,24.85
2016-08-29T02:16:28.488Z,24.87
2016-08-29T02:16:59.758Z,24.92
2016-08-29T02:17:22.513Z,24.80
2016-08-29T02:17:44.253Z,24.77
2016-08-29T02:18:05.986Z,24.68
2016-08-29T02:18:27.746Z,24.53
2016-08-29T02:19:20.873Z,24.04
2016-08-29T02:19:42.661Z,24.09
2016-08-29T02:20:04.459Z,24.17
2016-08-29T02:20:30.050Z,24.28
2016-08-29T02:22:45.259Z,24.57
2016-08-29T02:23:48.815Z,24.34
2016-08-29T02:24:10.559Z,24.14
2016-08-29T02:24:32.311Z,24.08
2016-08-29T02:24:54.192Z,24.00
2016-08-29T02:25:20.683Z,24.11
2016-08-29T02:25:47.201Z,24.01
2016-08-29T02:26:08.940Z,24.18
2016-08-29T02:26:30.749Z,24.12
2016-08-29T02:26:57.282Z,24.28
2016-08-29T02:27:19.035Z,24.27
2016-08-29T02:27:40.853Z,24.22
2016-08-29T02:28:07.374Z,24.25
2016-08-29T02:28:29.215Z,24.40
2016-08-29T02:29:22.298Z,24.40
2016-08-29T02:29:44.074Z,24.42
2016-08-29T02:30:10.563Z,24.47
2016-08-29T02:30:37.110Z,24.54
2016-08-29T02:30:58.860Z,24.55
2016-08-29T02:31:25.361Z,24.59
2016-08-29T02:31:47.118Z,24.61
2016-08-29T02:32:13.617Z,24.61
2016-08-29T02:32:40.172Z,24.61
2016-08-29T02:33:06.739Z,24.58
2016-08-29T02:33:28.651Z,24.57
2016-08-29T02:33:50.408Z,24.61
2016-08-29T02:34:12.364Z,24.61
2016-08-29T02:34:34.163Z,24.65
2016-08-29T02:34:56.015Z,24.62
2016-08-29T02:35:17.763Z,24.60
2016-08-29T02:36:10.812Z,24.51
2016-08-29T02:36:32.535Z,24.30
2016-08-29T02:36:54.299Z,24.24
2016-08-29T02:37:16.090Z,24.07
2016-08-29T02:37:37.831Z,24.11
2016-08-29T02:38:04.349Z,24.12
2016-08-29T02:38:26.081Z,24.27
2016-08-29T02:38:47.830Z,24.40
2016-08-29T02:39:09.585Z,24.57
2016-08-29T02:39:31.406Z,24.46
2016-08-29T02:39:53.226Z,24.25
2016-08-29T02:40:14.974Z,24.34
2016-08-29T02:40:41.524Z,24.39
2016-08-29T02:41:03.303Z,24.45
2016-08-29T02:41:25.036Z,24.38
2016-08-29T02:41:52.626Z,24.33
2016-08-29T02:42:14.381Z,24.41
2016-08-29T02:42:36.230Z,24.53
2016-08-29T02:42:58.982Z,24.58
2016-08-29T02:43:20.727Z,24.72
2016-08-29T02:43:43.525Z,24.60
2016-08-29T02:44:05.266Z,24.56
2016-08-29T02:44:31.838Z,24.59
2016-08-29T02:44:53.684Z,24.64
2016-08-29T02:45:15.566Z,24.65
2016-08-29T02:45:42.173Z,24.52
2016-08-29T02:46:04.122Z,24.26
2016-08-29T02:46:25.934Z,24.14
2016-08-29T02:46:47.726Z,24.06
2016-08-29T02:47:14.271Z,23.83
2016-08-29T02:47:36.082Z,23.78
2016-08-29T02:47:57.828Z,23.85
2016-08-29T02:48:24.404Z,23.83
2016-08-29T02:48:47.138Z,24.01
2016-08-29T02:49:08.871Z,23.90
2016-08-29T02:49:33.364Z,23.89
2016-08-29T02:49:55.007Z,23.97
2016-08-29T02:50:16.772Z,24.16
2016-08-29T02:50:43.397Z,24.31
2016-08-29T02:51:05.143Z,24.43
2016-08-29T02:51:27.951Z,24.51
2016-08-29T02:51:49.732Z,24.45
2016-08-29T02:52:11.519Z,24.42
2016-08-29T02:52:33.391Z,24.28
2016-08-29T02:52:55.222Z,24.02
2016-08-29T02:53:16.987Z,23.82
2016-08-29T02:53:38.761Z,23.73
2016-08-29T02:54:05.277Z,23.91
2016-08-29T02:54:27.086Z,23.91
2016-08-29T02:54:48.823Z,23.80
2016-08-29T02:55:10.556Z,23.80
2016-08-29T02:55:32.332Z,23.89
2016-08-29T02:55:54.222Z,24.01
2016-08-29T02:56:16.984Z,23.91
2016-08-29T02:56:38.734Z,23.89
2016-08-29T02:57:00.489Z,23.69
2016-08-29T02:57:22.241Z,23.48
2016-08-29T02:57:44.091Z,23.28
2016-08-29T02:58:10.600Z,23.18
2016-08-29T02:59:03.598Z,23.22
2016-08-29T02:59:25.352Z,23.15
2016-08-29T02:59:47.085Z,23.04
2016-08-29T03:00:08.817Z,23.28
2016-08-29T03:00:30.547Z,23.53
2016-08-29T03:00:52.283Z,23.83
2016-08-29T03:01:18.839Z,24.09
2016-08-29T03:01:40.570Z,24.19
2016-08-29T03:02:02.308Z,24.26
2016-08-29T03:02:28.879Z,24.39
2016-08-29T03:02:51.667Z,24.25
2016-08-29T03:03:42.562Z,23.61
2016-08-29T03:04:04.308Z,23.69
2016-08-29T03:04:27.127Z,23.80
2016-08-29T03:04:53.645Z,23.79
2016-08-29T03:05:19.199Z,23.95
2016-08-29T03:05:42.018Z,24.11
2016-08-29T03:06:03.798Z,24.16
2016-08-29T03:07:01.602Z,24.19
2016-08-29T03:07:23.344Z,24.22
2016-08-29T03:07:45.141Z,24.25
2016-08-29T03:08:06.895Z,24.08
2016-08-29T03:08:33.396Z,24.10
2016-08-29T03:08:55.159Z,24.20
2016-08-29T03:09:21.697Z,24.36
2016-08-29T03:09:43.480Z,24.45
2016-08-29T03:10:05.223Z,24.48
2016-08-29T03:10:31.717Z,24.39
2016-08-29T03:10:53.439Z,24.35
2016-08-29T03:11:15.328Z,24.28
2016-08-29T03:11:37.132Z,24.17
2016-08-29T03:11:58.908Z,24.16
2016-08-29T03:12:20.658Z,24.22
2016-08-29T03:12:42.402Z,24.26
2016-08-29T03:13:04.156Z,23.98
2016-08-29T03:13:30.660Z,23.73
2016-08-29T03:13:52.404Z,23.58
2016-08-29T03:14:18.907Z,23.39
2016-08-29T03:14:40.654Z,23.27
2016-08-29T03:15:02.383Z,23.16
2016-08-29T03:15:24.133Z,23.11
2016-08-29T03:15:50.633Z,22.96
2016-08-29T03:16:12.363Z,22.83
2016-08-29T03:16:34.088Z,23.11
2016-08-29T03:16:55.838Z,23.14
2016-08-29T03:17:17.562Z,23.07
2016-08-29T03:17:39.303Z,23.11
2016-08-29T03:18:27.617Z,23.53
2016-08-29T03:18:49.446Z,23.65
2016-08-29T03:19:14.072Z,23.76
2016-08-29T03:19:36.795Z,23.58
2016-08-29T03:19:58.576Z,23.61
2016-08-29T03:20:20.392Z,23.74
2016-08-29T03:20:42.193Z,23.93
2016-08-29T03:21:03.940Z,24.11
2016-08-29T03:21:25.666Z,24.19
2016-08-29T03:21:48.506Z,24.25
2016-08-29T03:22:10.286Z,24.25
2016-08-29T03:22:32.315Z,24.14
2016-08-29T03:22:54.188Z,24.17
2016-08-29T03:23:16.065Z,24.17
2016-08-29T03:23:37.784Z,24.12
2016-08-29T03:23:59.578Z,24.15
2016-08-29T03:24:21.327Z,24.15
2016-08-29T03:24:43.149Z,24.26
2016-08-29T03:25:07.876Z,24.37
2016-08-29T03:25:29.598Z,24.32
2016-08-29T03:26:17.987Z,24.29
2016-08-29T03:26:39.714Z,24.26
2016-08-29T03:27:01.462Z,24.25
2016-08-29T03:27:24.178Z,24.19
2016-08-29T03:27:45.926Z,23.87
2016-08-29T03:28:08.063Z,23.70
2016-08-29T03:28:31.864Z,23.60
2016-08-29T03:28:59.358Z,23.64
2016-08-29T03:29:23.980Z,23.71
2016-08-29T03:29:45.816Z,23.75
2016-08-29T03:30:10.183Z,23.84
2016-08-29T03:30:31.994Z,23.93
2016-08-29T03:30:53.824Z,24.00
2016-08-29T03:31:16.704Z,23.99
2016-08-29T03:31:43.216Z,24.04
2016-08-29T03:32:04.975Z,24.04
2016-08-29T03:32:26.853Z,24.13
2016-08-29T03:32:48.722Z,24.09
2016-08-29T03:33:11.368Z,24.06
2016-08-29T03:33:33.103Z,23.90
2016-08-29T03:33:54.833Z,23.82
2016-08-29T03:34:16.571Z,23.94
2016-08-29T03:34:38.312Z,23.91
2016-08-29T03:35:01.068Z,23.68
2016-08-29T03:35:22.818Z,23.77
2016-08-29T03:35:49.346Z,23.76
2016-08-29T03:36:15.872Z,23.75
2016-08-29T03:36:37.633Z,23.85
2016-08-29T03:36:59.390Z,23.72
2016-08-29T03:37:25.902Z,23.69
2016-08-29T03:37:50.472Z,23.56
2016-08-29T03:38:12.229Z,23.33
2016-08-29T03:38:34.019Z,23.12
2016-08-29T03:38:55.752Z,23.05
2016-08-29T03:39:17.475Z,23.01
2016-08-29T03:39:39.220Z,23.09
2016-08-29T03:40:00.981Z,23.28
2016-08-29T03:40:22.742Z,23.28
2016-08-29T03:40:44.476Z,23.29
2016-08-29T03:41:10.964Z,23.48
2016-08-29T03:41:33.778Z,23.67
2016-08-29T03:41:55.524Z,23.84
2016-08-29T03:42:18.248Z,23.91
2016-08-29T03:42:41.020Z,23.86
2016-08-29T03:43:34.057Z,23.71
2016-08-29T03:43:55.806Z,23.63
2016-08-29T03:44:17.625Z,23.77
2016-08-29T03:44:44.134Z,23.74
2016-08-29T03:45:05.873Z,23.57
2016-08-29T03:45:32.367Z,23.44
2016-08-29T03:45:54.112Z,23.54
2016-08-29T03:46:15.840Z,23.58
2016-08-29T03:46:37.605Z,23.64
2016-08-29T03:46:59.442Z,23.73
2016-08-29T03:47:21.324Z,23.87
2016-08-29T03:48:12.158Z,23.73
2016-08-29T03:48:33.885Z,23.70
2016-08-29T03:48:56.626Z,23.37
2016-08-29T03:49:18.356Z,23.12
2016-08-29T03:49:40.305Z,22.85
2016-08-29T03:50:02.041Z,22.76
2016-08-29T03:50:23.769Z,22.75
2016-08-29T03:50:46.508Z,22.67
2016-08-29T03:51:39.741Z,22.82
2016-08-29T03:52:01.582Z,22.81
2016-08-29T03:52:23.523Z,22.87
2016-08-29T03:52:45.418Z,23.10
2016-08-29T03:53:34.797Z,23.48
2016-08-29T03:53:57.529Z,23.56
2016-08-29T03:54:19.365Z,23.66
2016-08-29T03:54:41.177Z,23.76
2016-08-29T03:55:03.084Z,23.79
2016-08-29T03:55:24.812Z,23.83
2016-08-29T03:55:46.559Z,23.73
2016-08-29T03:56:08.310Z,23.70
2016-08-29T03:56:30.048Z,23.80
2016-08-29T03:56:51.824Z,23.84
2016-08-29T03:57:13.557Z,23.71
2016-08-29T03:57:35.275Z,23.32
2016-08-29T03:57:57.084Z,23.06
2016-08-29T03:58:23.582Z,23.08
2016-08-29T03:58:46.331Z,23.20
2016-08-29T03:59:08.056Z,23.15
2016-08-29T03:59:29.787Z,23.22
2016-08-29T03:59:51.509Z,23.32
2016-08-29T04:00:18.002Z,23.31
2016-08-29T04:00:42.271Z,23.39
2016-08-29T04:01:04.022Z,23.53
2016-08-29T04:01:25.803Z,23.61
2016-08-29T04:01:47.522Z,23.45
2016-08-29T04:02:09.256Z,23.48
2016-08-29T04:02:30.986Z,23.66
2016-08-29T04:02:52.716Z,23.71
2016-08-29T04:03:14.595Z,23.81
2016-08-29T04:03:36.359Z,23.93
2016-08-29T04:03:58.117Z,23.99
2016-08-29T04:04:19.852Z,23.85
2016-08-29T04:04:41.583Z,23.52
2016-08-29T04:05:03.330Z,23.18
2016-08-29T04:05:25.053Z,23.11
2016-08-29T04:05:51.558Z,23.21
2016-08-29T04:06:18.051Z,23.38
2016-08-29T04:06:39.802Z,23.39
2016-08-29T04:07:01.517Z,23.41
2016-08-29T04:07:23.322Z,23.53
2016-08-29T04:07:45.060Z,23.55
2016-08-29T04:08:06.789Z,23.61
2016-08-29T04:08:36.819Z,23.66
2016-08-29T04:08:58.599Z,23.69
2016-08-29T04:09:20.356Z,23.59
2016-08-29T04:09:42.130Z,23.56
2016-08-29T04:10:09.851Z,23.57
2016-08-29T04:10:31.445Z,23.59
2016-08-29T04:10:53.220Z,23.54
2016-08-29T04:11:22.230Z,23.38
2016-08-29T04:11:43.947Z,23.45
2016-08-29T04:12:05.922Z,23.41
2016-08-29T04:12:27.653Z,23.29
2016-08-29T04:12:49.372Z,23.15
2016-08-29T04:13:11.159Z,23.23
2016-08-29T04:13:32.922Z,23.08
2016-08-29T04:13:54.655Z,23.18
2016-08-29T04:14:16.371Z,23.19
2016-08-29T04:14:38.131Z,23.13
2016-08-29T04:14:59.859Z,23.18
2016-08-29T04:15:21.579Z,23.19
2016-08-29T04:15:43.298Z,22.96
2016-08-29T04:16:05.013Z,22.92
2016-08-29T04:16:26.729Z,22.91
2016-08-29T04:16:48.447Z,22.92
2016-08-29T04:17:10.164Z,22.96
2016-08-29T04:17:31.880Z,23.04
2016-08-29T04:17:53.610Z,22.64
2016-08-29T04:18:15.326Z,22.59
2016-08-29T04:18:37.040Z,22.69
2016-08-29T04:18:58.771Z,22.88
2016-08-29T04:19:20.493Z,22.86
2016-08-29T04:20:08.753Z,23.03
2016-08-29T04:20:30.481Z,23.16
2016-08-29T04:20:52.197Z,23.24
2016-08-29T04:21:13.916Z,23.29
2016-08-29T04:21:35.641Z,23.31
2016-08-29T04:21:57.356Z,23.27
2016-08-29T04:22:19.084Z,23.22
2016-08-29T04:22:40.799Z,23.36
2016-08-29T04:23:02.513Z,23.41
2016-08-29T04:23:24.227Z,23.26
2016-08-29T04:23:46.015Z,23.05
2016-08-29T04:24:12.516Z,22.84
2016-08-29T04:24:34.246Z,22.66
2016-08-29T04:24:56.091Z,22.83
2016-08-29T04:25:17.679Z,22.96
2016-08-29T04:25:39.401Z,22.68
2016-08-29T04:26:01.119Z,22.71
2016-08-29T04:26:22.835Z,22.86
2016-08-29T04:26:44.560Z,22.92
2016-08-29T04:27:06.271Z,23.09
2016-08-29T04:27:27.993Z,23.26
2016-08-29T04:27:49.709Z,22.92
2016-08-29T04:28:11.424Z,22.68
2016-08-29T04:28:33.140Z,22.54
2016-08-29T04:28:54.864Z,22.30
2016-08-29T04:29:16.601Z,22.25
2016-08-29T04:29:38.299Z,22.45
2016-08-29T04:30:00.014Z,22.71
2016-08-29T04:30:21.729Z,22.86
2016-08-29T04:30:43.451Z,22.91
2016-08-29T04:31:05.173Z,23.07
2016-08-29T04:31:26.911Z,23.16
2016-08-29T04:31:48.608Z,23.23
2016-08-29T04:32:10.344Z,23.23
2016-08-29T04:32:32.083Z,23.27
2016-08-29T04:32:53.807Z,23.36
2016-08-29T04:33:15.532Z,23.31
2016-08-29T04:33:37.266Z,23.35
2016-08-29T04:33:58.987Z,23.22
2016-08-29T04:34:20.713Z,23.23
2016-08-29T04:34:42.431Z,23.25
2016-08-29T04:35:04.150Z,23.33
2016-08-29T04:35:25.880Z,23.16
2016-08-29T04:35:47.619Z,23.06
2016-08-29T04:36:09.340Z,23.13
2016-08-29T04:36:31.058Z,23.14
2016-08-29T04:36:52.792Z,23.11
2016-08-29T04:37:14.508Z,22.95
2016-08-29T04:37:36.224Z,23.02
2016-08-29T04:37:57.951Z,22.71
2016-08-29T04:38:19.663Z,22.44
2016-08-29T04:38:41.383Z,22.33
2016-08-29T04:39:03.100Z,22.21
2016-08-29T04:39:24.819Z,22.05
2016-08-29T04:39:46.543Z,22.22
2016-08-29T04:40:08.358Z,22.18
2016-08-29T04:40:30.083Z,22.21
2016-08-29T04:40:51.810Z,22.17
2016-08-29T04:41:13.544Z,22.32
2016-08-29T04:41:35.265Z,22.22
2016-08-29T04:41:56.981Z,22.29
2016-08-29T04:42:18.701Z,22.26
2016-08-29T04:42:40.419Z,22.07
2016-08-29T04:43:03.133Z,21.99
2016-08-29T04:43:24.860Z,21.98
2016-08-29T04:43:46.578Z,22.24
2016-08-29T04:44:13.072Z,22.53
2016-08-29T04:44:34.806Z,22.73
2016-08-29T04:44:56.529Z,22.56
2016-08-29T04:45:18.809Z,22.23
2016-08-29T04:45:40.527Z,22.05
2016-08-29T04:46:02.263Z,22.15
2016-08-29T04:46:23.979Z,22.33
2016-08-29T04:46:45.698Z,22.62
2016-08-29T04:47:07.415Z,22.86
2016-08-29T04:47:29.135Z,22.94
2016-08-29T04:47:50.870Z,23.04
2016-08-29T04:48:12.590Z,23.05
2016-08-29T04:48:34.305Z,23.14
2016-08-29T04:48:56.023Z,23.15
2016-08-29T04:49:17.749Z,22.84
2016-08-29T04:49:39.459Z,22.60
2016-08-29T04:50:01.198Z,22.74
2016-08-29T04:50:23.918Z,22.88
2016-08-29T04:50:45.637Z,23.03
2016-08-29T04:51:07.351Z,22.79
2016-08-29T04:51:29.072Z,22.55
2016-08-29T04:51:50.862Z,22.45
2016-08-29T04:52:12.577Z,22.40
2016-08-29T04:52:34.301Z,22.58
2016-08-29T04:52:56.020Z,22.70
2016-08-29T04:53:17.756Z,22.84
2016-08-29T04:53:39.481Z,22.85
2016-08-29T04:54:01.200Z,22.87
2016-08-29T04:54:22.916Z,23.02
2016-08-29T04:54:44.633Z,23.08
2016-08-29T04:55:06.374Z,23.03
2016-08-29T04:55:28.093Z,22.54
2016-08-29T04:55:49.802Z,22.36
2016-08-29T04:56:11.521Z,22.19
2016-08-29T04:56:33.242Z,22.15
2016-08-29T04:56:54.956Z,22.14
2016-08-29T04:57:16.682Z,22.33
2016-08-29T04:57:38.397Z,22.58
2016-08-29T04:58:00.114Z,22.65
2016-08-29T04:58:21.839Z,22.82
2016-08-29T04:58:43.559Z,23.01
2016-08-29T04:59:05.280Z,22.95
2016-08-29T04:59:27.008Z,22.84
2016-08-29T04:59:48.740Z,22.92
2016-08-29T05:00:10.479Z,23.00
2016-08-29T05:00:32.270Z,23.03
2016-08-29T05:00:53.914Z,23.02
2016-08-29T05:01:15.641Z,23.04
2016-08-29T05:01:37.364Z,23.09
2016-08-29T05:01:59.084Z,23.16
2016-08-29T05:02:20.817Z,23.24
2016-08-29T05:02:42.534Z,23.28
2016-08-29T05:03:04.257Z,23.19
2016-08-29T05:03:25.971Z,23.20
2016-08-29T05:03:47.702Z,23.09
2016-08-29T05:04:09.429Z,23.00
2016-08-29T05:04:31.146Z,22.83
2016-08-29T05:04:52.875Z,22.82
2016-08-29T05:05:14.621Z,22.76
2016-08-29T05:05:36.355Z,22.76
2016-08-29T05:05:58.100Z,22.64
2016-08-29T05:06:19.879Z,22.69